createdAt,value
2018-02-07T00:01:49.514Z,24.65
2018-02-07T00:04:20.771Z,27.25
2018-02-07T00:06:57.275Z,26.75
2018-02-07T00:09:25.926Z,25.12
2018-02-07T00:12:00.774Z,24.35
2018-02-07T00:14:28.812Z,23.75
2018-02-07T00:16:58.546Z,25.12
2018-02-07T00:19:42.038Z,25.80
2018-02-07T00:22:11.292Z,25.48
2018-02-07T00:24:44.678Z,24.92
2018-02-07T00:27:20.684Z,26.30
2018-02-07T00:29:52.370Z,24.92
2018-02-07T00:32:25.299Z,26.37
2018-02-07T00:34:54.294Z,25.02
2018-02-07T00:37:24.162Z,25.42
2018-02-07T00:39:53.578Z,24.55
2018-02-07T00:42:25.454Z,24.48
2018-02-07T00:44:54.682Z,25.50
2018-02-07T00:47:22.962Z,24.95
2018-02-07T00:49:53.002Z,23.62
2018-02-07T00:52:23.946Z,25.42
2018-02-07T00:54:58.506Z,25.05
2018-02-07T00:57:32.350Z,24.50
2018-02-07T01:00:02.310Z,25.67
2018-02-07T01:02:37.460Z,25.62
2018-02-07T01:05:07.710Z,24.02
2018-02-07T01:07:40.990Z,26.42
2018-02-07T01:10:10.538Z,23.58
2018-02-07T01:15:15.909Z,25.50
2018-02-07T01:17:46.773Z,24.48
2018-02-07T01:22:48.258Z,26.45
2018-02-07T01:25:17.490Z,24.92
2018-02-07T01:27:50.578Z,25.10
2018-02-07T01:30:26.502Z,25.05
2018-02-07T01:32:55.734Z,24.20
2018-02-07T01:35:30.486Z,24.35
2018-02-07T01:37:58.762Z,24.95
2018-02-07T01:40:40.814Z,24.65
2018-02-07T01:43:09.095Z,22.77
2018-02-07T01:45:38.074Z,26.17
2018-02-07T01:48:14.940Z,24.67
2018-02-07T01:50:53.849Z,25.20
2018-02-07T01:53:23.878Z,25.25
2018-02-07T01:55:54.262Z,24.35
2018-02-07T01:58:29.502Z,24.08
2018-02-07T02:00:59.530Z,23.65
2018-02-07T02:03:28.542Z,24.58
2018-02-07T02:05:58.362Z,24.52
2018-02-07T02:08:26.447Z,22.20
2018-02-07T02:10:58.998Z,24.23
2018-02-07T02:13:28.014Z,24.55
2018-02-07T02:15:57.970Z,25.33
2018-02-07T02:18:33.289Z,24.15
2018-02-07T02:21:03.353Z,22.33
2018-02-07T02:23:34.097Z,25.12
2018-02-07T02:26:02.198Z,24.83
2018-02-07T02:28:30.258Z,25.48
2018-02-07T02:30:58.666Z,23.65
2018-02-07T02:33:28.734Z,23.92
2018-02-07T02:36:13.178Z,26.80
2018-02-07T02:38:42.010Z,22.65
2018-02-07T02:41:11.074Z,21.92
2018-02-07T02:43:39.182Z,24.85
2018-02-07T02:46:07.225Z,23.38
2018-02-07T02:48:35.284Z,23.05
2018-02-07T02:51:21.298Z,23.45
2018-02-07T02:53:49.358Z,24.83
2018-02-07T02:56:29.154Z,22.70
2018-02-07T02:58:58.040Z,23.38
2018-02-07T03:01:33.486Z,26.15
2018-02-07T03:04:06.389Z,23.85
2018-02-07T03:06:35.193Z,25.60
2018-02-07T03:09:05.110Z,23.40
2018-02-07T03:11:33.945Z,23.42
2018-02-07T03:14:05.794Z,27.62
2018-02-07T03:16:34.873Z,25.27
2018-02-07T03:19:03.950Z,26.48
2018-02-07T03:21:32.031Z,24.45
2018-02-07T03:24:02.810Z,22.55
2018-02-07T03:26:30.997Z,24.70
2018-02-07T03:28:59.022Z,23.35
2018-02-07T03:31:29.038Z,26.05
2018-02-07T03:33:57.874Z,25.30
2018-02-07T03:36:26.873Z,24.35
2018-02-07T03:38:59.393Z,24.67
2018-02-07T03:41:31.117Z,23.67
2018-02-07T03:43:59.961Z,25.77
2018-02-07T03:46:29.057Z,25.52
2018-02-07T03:48:58.225Z,26.10
2018-02-07T03:51:26.275Z,26.30
2018-02-07T03:53:55.097Z,25.35
2018-02-07T03:56:32.429Z,23.73
2018-02-07T03:59:00.449Z,26.60
2018-02-07T04:01:32.953Z,25.10
2018-02-07T04:04:06.811Z,27.08
2018-02-07T04:06:36.837Z,27.35
2018-02-07T04:09:05.957Z,24.27
2018-02-07T04:11:39.593Z,25.67
2018-02-07T04:14:15.265Z,27.33
2018-02-07T04:16:46.029Z,25.35
2018-02-07T04:19:19.389Z,26.83
2018-02-07T04:21:49.421Z,25.48
2018-02-07T04:24:17.473Z,26.70
2018-02-07T04:26:47.293Z,28.55
2018-02-07T04:29:19.761Z,25.70
2018-02-07T04:31:52.417Z,25.27
2018-02-07T04:34:36.497Z,27.77
2018-02-07T04:37:10.109Z,26.00
2018-02-07T04:39:42.021Z,27.98
2018-02-07T04:42:11.002Z,26.48
2018-02-07T04:44:39.033Z,27.23
2018-02-07T04:47:22.793Z,27.77
2018-02-07T04:49:50.845Z,25.52
2018-02-07T04:52:20.812Z,26.30
2018-02-07T04:54:51.543Z,26.95
2018-02-07T04:57:23.313Z,26.10
2018-02-07T04:59:52.213Z,27.13
2018-02-07T05:02:22.000Z,27.92
2018-02-07T05:04:50.053Z,25.98
2018-02-07T05:07:18.093Z,26.48
2018-02-07T05:09:48.053Z,26.40
2018-02-07T05:12:25.917Z,27.65
2018-02-07T05:14:59.877Z,27.10
2018-02-07T05:17:43.829Z,28.75
2018-02-07T05:20:24.697Z,28.77
2018-02-07T05:22:57.248Z,26.65
2018-02-07T05:25:30.964Z,30.15
2018-02-07T05:28:06.461Z,29.17
2018-02-07T05:30:47.205Z,28.70
2018-02-07T05:33:16.149Z,29.90
2018-02-07T05:35:44.186Z,29.10
2018-02-07T05:38:15.876Z,29.87
2018-02-07T05:40:44.877Z,28.60
2018-02-07T05:43:18.332Z,28.58
2018-02-07T05:45:51.036Z,29.10
2018-02-07T05:48:23.030Z,29.63
2018-02-07T05:50:51.821Z,29.52
2018-02-07T05:53:33.233Z,29.30
2018-02-07T05:56:01.277Z,27.87
2018-02-07T05:58:32.096Z,28.60
2018-02-07T06:01:00.143Z,31.10
2018-02-07T06:03:31.896Z,28.48
2018-02-07T06:06:14.153Z,27.67
2018-02-07T06:08:42.168Z,30.48
2018-02-07T06:11:16.097Z,29.50
2018-02-07T06:13:55.499Z,29.25
2018-02-07T06:16:26.216Z,31.40
2018-02-07T06:18:56.177Z,28.40
2018-02-07T06:21:30.096Z,28.85
2018-02-07T06:23:58.900Z,28.85
2018-02-07T06:26:32.516Z,30.02
2018-02-07T06:29:02.488Z,29.95
2018-02-07T06:31:32.544Z,28.62
2018-02-07T06:34:01.506Z,28.70
2018-02-07T06:36:29.544Z,30.30
2018-02-07T06:39:03.264Z,31.05
2018-02-07T06:41:38.800Z,28.95
2018-02-07T06:44:07.816Z,27.87
2018-02-07T06:46:40.800Z,30.65
2018-02-07T06:49:09.796Z,30.08
2018-02-07T06:51:38.600Z,30.65
2018-02-07T06:54:07.388Z,31.90
2018-02-07T06:56:37.372Z,29.83
2018-02-07T06:59:11.652Z,29.37
2018-02-07T07:01:42.736Z,29.85
2018-02-07T07:04:11.745Z,33.70
2018-02-07T07:06:53.564Z,31.40
2018-02-07T07:09:25.264Z,31.58
2018-02-07T07:11:53.328Z,30.55
2018-02-07T07:14:22.332Z,29.58
2018-02-07T07:16:50.364Z,30.35
2018-02-07T07:19:26.332Z,32.38
2018-02-07T07:22:02.008Z,30.98
2018-02-07T07:24:36.952Z,32.83
2018-02-07T07:27:07.668Z,31.25
2018-02-07T07:29:39.024Z,29.00
2018-02-07T07:32:07.094Z,31.70
2018-02-07T07:34:35.107Z,29.05
2018-02-07T07:37:11.628Z,30.40
2018-02-07T07:39:39.664Z,30.40
2018-02-07T07:42:13.332Z,30.02
2018-02-07T07:44:43.104Z,30.40
2018-02-07T07:47:16.868Z,29.90
2018-02-07T07:49:44.896Z,30.85
2018-02-07T07:52:20.516Z,28.67
2018-02-07T07:54:48.543Z,27.87
2018-02-07T07:57:20.408Z,27.70
2018-02-07T07:59:50.372Z,28.77
2018-02-07T08:02:21.961Z,29.80
2018-02-07T08:04:50.756Z,29.70
2018-02-07T08:07:19.551Z,31.02
2018-02-07T08:09:55.020Z,29.25
2018-02-07T08:12:33.077Z,30.42
2018-02-07T08:15:05.028Z,27.73
2018-02-07T08:17:36.768Z,27.73
2018-02-07T08:20:04.796Z,28.45
2018-02-07T08:22:36.560Z,28.80
2018-02-07T08:25:04.608Z,28.08
2018-02-07T08:27:46.498Z,31.00
2018-02-07T08:30:17.183Z,29.52
2018-02-07T08:32:45.204Z,29.25
2018-02-07T08:35:13.231Z,27.70
2018-02-07T08:37:43.159Z,27.62
2018-02-07T08:40:14.595Z,28.60
2018-02-07T08:42:46.371Z,29.00
2018-02-07T08:45:15.351Z,28.77
2018-02-07T08:47:44.267Z,29.30
2018-02-07T08:50:13.055Z,28.35
2018-02-07T08:52:45.040Z,29.77
2018-02-07T08:55:22.759Z,28.90
2018-02-07T08:58:07.531Z,29.30
2018-02-07T09:00:35.555Z,27.92
2018-02-07T09:03:03.587Z,29.75
2018-02-07T09:05:35.355Z,29.27
2018-02-07T09:08:06.043Z,28.52
2018-02-07T09:10:35.987Z,28.00
2018-02-07T09:13:04.016Z,28.45
2018-02-07T09:15:35.819Z,29.60
2018-02-07T09:18:03.847Z,28.30
2018-02-07T09:20:35.751Z,28.95
2018-02-07T09:23:05.672Z,29.67
2018-02-07T09:25:34.467Z,28.52
2018-02-07T09:28:03.280Z,26.73
2018-02-07T09:30:32.219Z,27.80
2018-02-07T09:33:02.158Z,27.00
2018-02-07T09:35:34.811Z,28.58
2018-02-07T09:38:04.735Z,30.33
2018-02-07T09:40:32.759Z,28.27
2018-02-07T09:43:00.787Z,29.10
2018-02-07T09:45:29.583Z,28.27
2018-02-07T09:47:59.362Z,28.77
2018-02-07T09:50:38.527Z,28.00
2018-02-07T09:53:07.315Z,27.85
2018-02-07T09:55:40.803Z,27.65
2018-02-07T09:58:09.599Z,26.95
2018-02-07T10:00:38.387Z,27.13
2018-02-07T10:03:07.176Z,28.62
2018-02-07T10:05:35.988Z,25.60
2018-02-07T10:08:03.995Z,27.02
2018-02-07T10:10:32.023Z,27.02
2018-02-07T10:13:13.059Z,28.55
2018-02-07T10:15:42.979Z,30.08
2018-02-07T10:18:19.095Z,28.17
2018-02-07T10:20:50.471Z,28.92
2018-02-07T10:23:30.142Z,28.30
2018-02-07T10:25:59.099Z,27.83
2018-02-07T10:28:35.208Z,28.23
2018-02-07T10:31:05.171Z,26.95
2018-02-07T10:33:38.447Z,28.95
2018-02-07T10:36:06.483Z,25.37
2018-02-07T10:38:38.399Z,28.25
2018-02-07T10:41:06.519Z,26.98
2018-02-07T10:43:40.055Z,25.95
2018-02-07T10:46:12.738Z,25.92
2018-02-07T10:48:41.672Z,28.27
2018-02-07T10:51:10.459Z,26.42
2018-02-07T10:53:43.399Z,26.77
2018-02-07T10:59:11.150Z,25.42
2018-02-07T11:01:39.175Z,26.52
2018-02-07T11:04:07.195Z,24.75
2018-02-07T11:06:38.888Z,23.90
2018-02-07T11:09:10.750Z,24.42
2018-02-07T11:11:47.386Z,25.85
2018-02-07T11:14:19.351Z,26.70
2018-02-07T11:16:50.311Z,26.42
2018-02-07T11:19:18.327Z,27.05
2018-02-07T11:21:46.375Z,25.12
2018-02-07T11:24:27.803Z,27.65
2018-02-07T11:27:17.167Z,26.92
2018-02-07T11:29:49.167Z,27.00
2018-02-07T11:32:17.203Z,27.15
2018-02-07T11:34:49.715Z,25.75
2018-02-07T11:37:34.834Z,26.85
2018-02-07T11:40:04.759Z,25.85
2018-02-07T11:42:38.887Z,25.67
2018-02-07T11:45:12.103Z,27.42
2018-02-07T11:47:47.639Z,27.75
2018-02-07T11:50:16.691Z,26.08
2018-02-07T11:52:49.018Z,26.48
2018-02-07T11:55:17.042Z,27.73
2018-02-07T11:57:49.167Z,27.00
2018-02-07T12:00:22.863Z,27.35
2018-02-07T12:02:50.895Z,28.30
2018-02-07T12:05:24.826Z,27.45
2018-02-07T12:07:54.879Z,25.98
2018-02-07T12:10:27.702Z,28.08
2018-02-07T12:12:56.639Z,26.87
2018-02-07T12:15:35.058Z,28.62
2018-02-07T12:18:03.862Z,27.00
2018-02-07T12:20:31.898Z,28.92
2018-02-07T12:23:00.814Z,26.12
2018-02-07T12:25:36.402Z,27.00
2018-02-07T12:28:16.999Z,25.67
2018-02-07T12:30:45.027Z,25.62
2018-02-07T12:33:13.965Z,27.27
2018-02-07T12:35:48.130Z,27.65
2018-02-07T12:38:21.938Z,27.37
2018-02-07T12:40:49.978Z,27.00
2018-02-07T12:43:21.118Z,27.90
2018-02-07T12:45:50.050Z,28.30
2018-02-07T12:48:18.086Z,28.27
2018-02-07T12:50:47.034Z,26.90
2018-02-07T12:53:15.059Z,26.58
2018-02-07T12:55:49.482Z,26.95
2018-02-07T12:58:17.525Z,27.55
2018-02-07T13:00:46.310Z,26.98
2018-02-07T13:03:25.766Z,28.27
2018-02-07T13:06:04.026Z,25.00
2018-02-07T13:08:32.087Z,27.35
2018-02-07T13:11:03.870Z,27.62
2018-02-07T13:13:32.850Z,27.75
2018-02-07T13:16:00.874Z,28.58
2018-02-07T13:18:35.942Z,28.55
2018-02-07T13:21:03.970Z,27.65
2018-02-07T13:23:31.997Z,28.62
2018-02-07T13:26:00.027Z,26.23
2018-02-07T13:28:31.746Z,26.95
2018-02-07T13:31:02.470Z,27.58
2018-02-07T13:33:36.366Z,27.17
2018-02-07T13:36:08.221Z,26.62
2018-02-07T13:38:37.210Z,28.20
2018-02-07T13:41:10.670Z,28.05
2018-02-07T13:43:38.701Z,28.12
2018-02-07T13:46:09.438Z,26.60
2018-02-07T13:48:40.134Z,28.62
2018-02-07T13:51:10.161Z,29.42
2018-02-07T13:53:38.214Z,29.23
2018-02-07T13:56:10.198Z,29.42
2018-02-07T13:58:39.229Z,27.85
2018-02-07T14:01:09.914Z,26.67
2018-02-07T14:03:37.958Z,27.25
2018-02-07T14:06:09.794Z,28.25
2018-02-07T14:08:37.818Z,25.90
2018-02-07T14:13:37.694Z,27.65
2018-02-07T14:16:05.709Z,26.95
2018-02-07T14:18:37.182Z,25.30
2018-02-07T14:21:22.786Z,28.33
2018-02-07T14:23:50.822Z,26.00
2018-02-07T14:26:18.854Z,27.23
2018-02-07T14:28:48.790Z,29.63
2018-02-07T14:31:17.722Z,27.83
2018-02-07T14:33:46.510Z,29.08
2018-02-07T14:36:17.230Z,31.02
2018-02-07T14:38:45.350Z,28.50
2018-02-07T14:41:17.905Z,27.02
2018-02-07T14:43:46.857Z,27.10
2018-02-07T14:46:18.714Z,25.40
2018-02-07T14:48:58.050Z,25.92
2018-02-07T14:51:27.097Z,25.37
2018-02-07T14:54:18.925Z,24.35
2018-02-07T14:56:49.621Z,25.92
2018-02-07T14:59:18.441Z,25.35
2018-02-07T15:01:48.415Z,27.75
2018-02-07T15:04:23.925Z,27.05
2018-02-07T15:06:57.241Z,25.62
2018-02-07T15:09:30.209Z,26.42
2018-02-07T15:11:59.122Z,28.10
2018-02-07T15:14:27.145Z,26.90
2018-02-07T15:16:55.170Z,27.85
2018-02-07T15:19:23.949Z,25.65
2018-02-07T15:21:51.978Z,27.05
2018-02-07T15:24:20.897Z,27.62
2018-02-07T15:26:48.917Z,28.70
2018-02-07T15:29:29.677Z,26.30
2018-02-07T15:31:57.701Z,27.17
2018-02-07T15:34:31.457Z,27.95
2018-02-07T15:37:01.137Z,26.15
2018-02-07T15:39:29.925Z,28.52
2018-02-07T15:42:01.773Z,26.90
2018-02-07T15:44:37.289Z,28.15
2018-02-07T15:47:07.193Z,28.33
2018-02-07T15:49:38.259Z,26.60
2018-02-07T15:52:10.141Z,29.67
2018-02-07T15:54:39.829Z,27.17
2018-02-07T15:57:07.861Z,26.77
2018-02-07T15:59:39.753Z,27.35
2018-02-07T16:02:07.785Z,27.37
2018-02-07T16:04:36.785Z,33.63
2018-02-07T16:07:17.449Z,28.77
2018-02-07T16:09:48.746Z,27.17
2018-02-07T16:12:16.769Z,27.40
2018-02-07T16:14:52.777Z,26.98
2018-02-07T16:17:27.153Z,27.62
2018-02-07T16:19:56.076Z,29.85
2018-02-07T16:22:30.264Z,29.02
2018-02-07T16:25:10.845Z,28.35
2018-02-07T16:27:38.885Z,27.02
2018-02-07T16:30:07.905Z,27.33
2018-02-07T16:32:37.841Z,36.97
2018-02-07T16:35:11.213Z,29.80
2018-02-07T16:37:44.905Z,28.12
2018-02-07T16:40:13.949Z,30.70
2018-02-07T16:42:42.761Z,31.85
2018-02-07T16:45:10.777Z,29.60
2018-02-07T16:47:38.809Z,29.63
2018-02-07T16:50:06.849Z,28.10
2018-02-07T16:52:38.789Z,29.80
2018-02-07T16:55:12.473Z,29.25
2018-02-07T16:57:40.511Z,30.00
2018-02-07T17:00:13.125Z,30.40
2018-02-07T17:02:48.644Z,30.15
2018-02-07T17:05:36.557Z,29.92
2018-02-07T17:08:06.480Z,29.48
2018-02-07T17:10:35.529Z,30.27
2018-02-07T17:13:03.550Z,33.25
2018-02-07T17:15:36.265Z,32.63
2018-02-07T17:18:21.577Z,32.97
2018-02-07T17:20:50.528Z,31.48
2018-02-07T17:23:23.880Z,30.08
2018-02-07T17:25:51.914Z,30.65
2018-02-07T17:28:21.604Z,29.17
2018-02-07T17:30:49.629Z,33.97
2018-02-07T17:33:17.673Z,41.88
2018-02-07T17:35:46.482Z,67.43
2018-02-07T17:38:14.529Z,40.08
2018-02-07T17:40:44.309Z,61.22
2018-02-07T17:43:13.249Z,127.53
2018-02-07T17:45:43.228Z,95.97
2018-02-07T17:48:11.261Z,49.28
2018-02-07T17:50:40.065Z,41.65
2018-02-07T17:53:09.013Z,37.45
2018-02-07T17:55:37.053Z,35.45
2018-02-07T17:58:10.609Z,33.03
2018-02-07T18:00:38.665Z,32.08
2018-02-07T18:03:07.860Z,33.50
2018-02-07T18:05:37.070Z,35.33
2018-02-07T18:08:05.520Z,36.20
2018-02-07T18:10:33.805Z,35.45
2018-02-07T18:13:01.801Z,32.40
2018-02-07T18:15:31.332Z,32.95
2018-02-07T18:17:59.364Z,29.50
2018-02-07T18:20:35.989Z,32.38
2018-02-07T18:23:08.604Z,33.58
2018-02-07T18:25:47.652Z,31.60
2018-02-07T18:28:16.588Z,33.40
2018-02-07T18:30:44.616Z,31.40
2018-02-07T18:33:16.296Z,31.02
2018-02-07T18:35:45.252Z,33.05
2018-02-07T18:38:17.731Z,38.63
2018-02-07T18:40:52.148Z,36.13
2018-02-07T18:43:33.712Z,31.87
2018-02-07T18:46:03.696Z,31.87
2018-02-07T18:48:32.668Z,29.37
2018-02-07T18:51:11.544Z,28.60
2018-02-07T18:53:42.796Z,29.73
2018-02-07T18:56:21.252Z,28.05
2018-02-07T18:59:04.652Z,32.92
2018-02-07T19:01:37.072Z,34.33
2018-02-07T19:04:07.072Z,36.20
2018-02-07T19:06:47.632Z,31.42
2018-02-07T19:09:17.692Z,30.37
2018-02-07T19:11:52.148Z,30.17
2018-02-07T19:14:21.223Z,32.17
2018-02-07T19:16:49.212Z,29.83
2018-02-07T19:19:18.164Z,31.25
2018-02-07T19:21:47.952Z,28.83
2018-02-07T19:24:26.020Z,28.95
2018-02-07T19:27:05.760Z,30.05
2018-02-07T19:29:33.804Z,28.67
2018-02-07T19:32:01.836Z,29.30
2018-02-07T19:34:30.056Z,30.48
2018-02-07T19:37:07.064Z,31.50
2018-02-07T19:39:37.160Z,29.50
2018-02-07T19:42:09.984Z,28.38
2018-02-07T19:44:43.700Z,30.80
2018-02-07T19:47:11.816Z,31.52
2018-02-07T19:49:39.855Z,30.75
2018-02-07T19:52:09.896Z,28.17
2018-02-07T19:54:44.251Z,30.45
2018-02-07T19:57:15.303Z,29.90
2018-02-07T19:59:43.355Z,30.15
2018-02-07T20:02:17.584Z,29.90
2018-02-07T20:04:46.628Z,31.45
2018-02-07T20:07:20.640Z,32.30
2018-02-07T20:09:49.472Z,29.85
2018-02-07T20:12:19.184Z,33.20
2018-02-07T20:14:48.020Z,33.42
2018-02-07T20:17:18.284Z,32.05
2018-02-07T20:19:47.056Z,46.03
2018-02-07T20:22:19.048Z,37.13
2018-02-07T20:24:48.396Z,31.73
2018-02-07T20:27:26.319Z,31.50
2018-02-07T20:29:55.412Z,33.47
2018-02-07T20:32:23.514Z,31.30
2018-02-07T20:34:54.911Z,33.17
2018-02-07T20:37:23.006Z,33.45
2018-02-07T20:39:52.981Z,32.50
2018-02-07T20:42:21.840Z,32.30
2018-02-07T20:44:50.860Z,34.30
2018-02-07T20:47:18.891Z,35.42
2018-02-07T20:49:48.151Z,32.97
2018-02-07T20:52:28.008Z,32.60
2018-02-07T20:55:00.076Z,33.15
2018-02-07T20:57:34.675Z,34.97
2018-02-07T21:00:08.591Z,32.50
2018-02-07T21:02:36.672Z,32.10
2018-02-07T21:05:08.068Z,31.75
2018-02-07T21:07:37.076Z,47.15
2018-02-07T21:10:06.671Z,35.53
2018-02-07T21:12:39.167Z,33.33
2018-02-07T21:15:08.971Z,33.83
2018-02-07T21:17:38.839Z,34.75
2018-02-07T21:20:12.543Z,32.65
2018-02-07T21:22:44.323Z,35.25
2018-02-07T21:25:12.423Z,33.63
2018-02-07T21:27:42.695Z,37.45
2018-02-07T21:30:13.041Z,32.63
2018-02-07T21:32:42.303Z,32.70
2018-02-07T21:35:11.971Z,33.58
2018-02-07T21:37:40.371Z,32.85
2018-02-07T21:40:12.667Z,31.05
2018-02-07T21:42:43.511Z,30.62
2018-02-07T21:45:12.619Z,31.40
2018-02-07T21:47:47.231Z,32.30
2018-02-07T21:50:15.599Z,31.70
2018-02-07T21:52:45.719Z,30.67
2018-02-07T21:55:20.083Z,28.90
2018-02-07T21:57:48.191Z,31.37
2018-02-07T22:00:17.411Z,30.60
2018-02-07T22:02:48.835Z,31.92
2018-02-07T22:05:22.203Z,33.75
2018-02-07T22:07:54.255Z,33.85
2018-02-07T22:10:26.003Z,32.38
2018-02-07T22:13:04.319Z,32.58
2018-02-07T22:15:38.440Z,31.20
2018-02-07T22:18:12.027Z,29.05
2018-02-07T22:20:43.475Z,33.30
2018-02-07T22:23:12.483Z,31.77
2018-02-07T22:25:40.567Z,32.78
2018-02-07T22:28:25.259Z,31.73
2018-02-07T22:30:58.011Z,32.47
2018-02-07T22:33:27.775Z,29.20
2018-02-07T22:36:02.463Z,31.30
2018-02-07T22:38:35.446Z,31.80
2018-02-07T22:41:07.800Z,32.00
2018-02-07T22:43:40.582Z,33.53
2018-02-07T22:46:19.495Z,32.78
2018-02-07T22:48:49.974Z,31.45
2018-02-07T22:51:22.327Z,33.85
2018-02-07T22:53:52.891Z,30.30
2018-02-07T22:56:27.387Z,33.08
2018-02-07T22:59:04.274Z,33.13
2018-02-07T23:01:42.702Z,31.98
2018-02-07T23:04:16.619Z,31.98
2018-02-07T23:06:48.815Z,33.08
2018-02-07T23:09:17.019Z,31.73
2018-02-07T23:11:47.763Z,32.85
2018-02-07T23:14:18.779Z,31.87
2018-02-07T23:16:48.611Z,31.00
2018-02-07T23:19:24.187Z,31.77
2018-02-07T23:22:04.181Z,33.13
2018-02-07T23:24:32.274Z,33.10
2018-02-07T23:27:17.686Z,33.67
2018-02-07T23:29:49.478Z,34.13
2018-02-07T23:32:21.258Z,36.47
2018-02-07T23:34:50.143Z,35.75
2018-02-07T23:37:19.755Z,34.03
2018-02-07T23:39:47.815Z,36.25
2018-02-07T23:42:16.997Z,35.67
2018-02-07T23:44:45.063Z,36.00
2018-02-07T23:47:14.894Z,35.67
2018-02-07T23:49:43.127Z,36.63
2018-02-07T23:52:15.270Z,35.72
2018-02-07T23:54:43.542Z,37.92
2018-02-07T23:57:15.086Z,35.95
2018-02-07T23:59:48.591Z,37.35
